createdAt,value
2023-03-20T00:01:30.961Z,4.20
2023-03-20T00:04:29.506Z,5.32
2023-03-20T00:07:27.387Z,4.88
2023-03-20T00:10:36.941Z,3.00
2023-03-20T00:13:33.786Z,6.20
2023-03-20T00:16:37.400Z,3.78
2023-03-20T00:19:34.209Z,4.32
2023-03-20T00:22:32.774Z,6.38
2023-03-20T00:25:29.709Z,7.90
2023-03-20T00:28:52.981Z,8.63
2023-03-20T00:31:50.076Z,8.68
2023-03-20T00:34:46.943Z,6.90
2023-03-20T00:37:43.817Z,6.57
2023-03-20T00:40:40.621Z,5.90
2023-03-20T00:43:37.779Z,6.53
2023-03-20T00:46:39.137Z,7.40
2023-03-20T00:49:36.182Z,7.95
2023-03-20T00:52:33.004Z,8.38
2023-03-20T00:55:30.293Z,5.07
2023-03-20T00:58:27.152Z,5.03
2023-03-20T01:01:24.377Z,5.80
2023-03-20T01:04:21.742Z,7.32
2023-03-20T01:07:18.922Z,5.20
2023-03-20T01:10:16.365Z,6.13
2023-03-20T01:13:19.356Z,4.65
2023-03-20T01:16:27.209Z,5.35
2023-03-20T01:19:24.066Z,4.07
2023-03-20T01:22:21.024Z,3.40
2023-03-20T01:25:18.327Z,4.22
2023-03-20T01:28:23.222Z,5.57
2023-03-20T01:31:20.196Z,4.43
2023-03-20T01:34:17.704Z,7.40
2023-03-20T01:37:23.303Z,4.95
2023-03-20T01:40:32.075Z,4.93
2023-03-20T01:43:29.566Z,5.15
2023-03-20T01:46:32.076Z,3.45
2023-03-20T01:49:28.825Z,3.33
2023-03-20T01:52:25.917Z,3.72
2023-03-20T01:55:23.830Z,3.47
2023-03-20T01:58:28.327Z,2.83
2023-03-20T02:01:27.741Z,4.90
2023-03-20T02:04:32.864Z,3.65
2023-03-20T02:07:32.468Z,3.90
2023-03-20T02:10:29.346Z,3.97
2023-03-20T02:13:31.354Z,4.60
2023-03-20T02:16:28.328Z,2.97
2023-03-20T02:20:07.309Z,4.47
2023-03-20T02:23:19.005Z,3.92
2023-03-20T02:26:54.862Z,2.53
2023-03-20T02:30:33.799Z,3.03
2023-03-20T02:33:45.945Z,3.45
2023-03-20T02:37:11.787Z,3.15
2023-03-20T02:40:37.250Z,2.92
2023-03-20T02:44:08.738Z,2.88
2023-03-20T02:47:29.930Z,3.85
2023-03-20T02:50:50.991Z,5.78
2023-03-20T02:54:28.320Z,3.28
2023-03-20T02:57:51.346Z,4.25
2023-03-20T03:01:09.906Z,4.05
2023-03-20T03:04:17.913Z,4.15
2023-03-20T03:07:18.580Z,3.80
2023-03-20T03:10:30.277Z,3.80
2023-03-20T03:13:32.430Z,3.15
2023-03-20T03:16:38.225Z,4.00
2023-03-20T03:19:38.685Z,3.72
2023-03-20T03:22:36.726Z,5.28
2023-03-20T03:25:39.915Z,5.85
2023-03-20T03:28:56.801Z,3.97
2023-03-20T03:31:54.951Z,4.72
2023-03-20T03:34:52.094Z,4.32
2023-03-20T03:38:02.567Z,3.28
2023-03-20T03:41:35.601Z,3.35
2023-03-20T03:44:51.402Z,3.35
2023-03-20T03:48:01.708Z,4.03
2023-03-20T03:51:12.891Z,2.70
2023-03-20T03:54:19.557Z,3.33
2023-03-20T03:57:21.741Z,4.40
2023-03-20T04:00:23.610Z,3.05
2023-03-20T04:03:24.919Z,3.13
2023-03-20T04:06:21.998Z,3.28
2023-03-20T04:09:19.007Z,4.22
2023-03-20T04:12:43.678Z,3.78
2023-03-20T04:15:40.490Z,3.70
2023-03-20T04:18:37.311Z,3.08
2023-03-20T04:21:34.124Z,4.43
2023-03-20T04:24:30.931Z,4.00
2023-03-20T04:27:27.775Z,3.45
2023-03-20T04:30:24.660Z,2.65
2023-03-20T04:33:21.698Z,4.35
2023-03-20T04:36:18.792Z,4.32
2023-03-20T04:39:16.426Z,3.33
2023-03-20T04:42:13.275Z,4.55
2023-03-20T04:45:10.623Z,2.90
2023-03-20T04:48:08.204Z,3.30
2023-03-20T04:51:05.310Z,4.80
2023-03-20T04:54:02.201Z,3.28
2023-03-20T04:56:59.032Z,3.15
2023-03-20T04:59:56.276Z,2.97
2023-03-20T05:02:53.089Z,4.40
2023-03-20T05:05:49.887Z,4.38
2023-03-20T05:08:46.852Z,4.20
2023-03-20T05:11:44.053Z,3.97
2023-03-20T05:14:41.363Z,5.15
2023-03-20T05:17:38.185Z,6.28
2023-03-20T05:20:36.326Z,12.43
2023-03-20T05:23:33.341Z,7.00
2023-03-20T05:26:30.191Z,6.63
2023-03-20T05:29:27.062Z,7.82
2023-03-20T05:32:23.878Z,11.45
2023-03-20T05:35:20.961Z,10.88
2023-03-20T05:38:17.783Z,6.63
2023-03-20T05:41:14.607Z,7.45
2023-03-20T05:44:11.446Z,10.07
2023-03-20T05:47:08.277Z,7.05
2023-03-20T05:50:05.582Z,7.38
2023-03-20T05:53:02.664Z,7.63
2023-03-20T05:55:59.509Z,7.43
2023-03-20T05:58:56.480Z,11.15
2023-03-20T06:01:53.305Z,12.52
2023-03-20T06:04:50.180Z,11.38
2023-03-20T06:07:46.984Z,10.13
2023-03-20T06:10:43.824Z,9.93
2023-03-20T06:13:40.671Z,9.95
2023-03-20T06:16:37.540Z,8.45
2023-03-20T06:19:34.389Z,10.05
2023-03-20T06:22:31.321Z,11.30
2023-03-20T06:25:28.308Z,15.50
2023-03-20T06:28:25.233Z,12.60
2023-03-20T06:31:22.144Z,10.57
2023-03-20T06:34:18.950Z,11.32
2023-03-20T06:37:15.909Z,14.05
2023-03-20T06:40:12.753Z,11.85
2023-03-20T06:43:12.381Z,14.57
2023-03-20T06:46:09.682Z,16.70
2023-03-20T06:49:06.515Z,11.95
2023-03-20T06:52:04.291Z,14.05
2023-03-20T06:55:01.226Z,15.85
2023-03-20T06:57:58.099Z,14.82
2023-03-20T07:00:54.956Z,17.13
2023-03-20T07:03:51.874Z,34.28
2023-03-20T07:06:48.716Z,20.65
2023-03-20T07:09:45.684Z,22.30
2023-03-20T07:12:42.619Z,20.08
2023-03-20T07:15:41.172Z,25.45
2023-03-20T07:18:43.310Z,27.02
2023-03-20T07:21:40.330Z,32.45
2023-03-20T07:24:37.183Z,25.60
2023-03-20T07:27:33.996Z,25.85
2023-03-20T07:30:32.029Z,19.10
2023-03-20T07:33:28.914Z,16.33
2023-03-20T07:36:25.827Z,23.75
2023-03-20T07:39:23.148Z,22.40
2023-03-20T07:42:19.966Z,20.85
2023-03-20T07:45:18.273Z,28.40
2023-03-20T07:48:15.125Z,32.88
2023-03-20T07:51:11.955Z,32.33
2023-03-20T07:54:08.755Z,26.40
2023-03-20T07:57:05.582Z,37.20
2023-03-20T08:00:02.876Z,21.50
2023-03-20T08:02:59.796Z,21.70
2023-03-20T08:05:56.701Z,20.20
2023-03-20T08:08:53.841Z,24.88
2023-03-20T08:11:51.189Z,24.52
2023-03-20T08:14:48.097Z,18.42
2023-03-20T08:17:46.416Z,20.67
2023-03-20T08:20:43.223Z,23.00
2023-03-20T08:23:40.033Z,20.02
2023-03-20T08:26:36.977Z,24.92
2023-03-20T08:29:33.878Z,26.02
2023-03-20T08:32:30.954Z,29.90
2023-03-20T08:35:33.372Z,28.58
2023-03-20T08:38:30.688Z,25.05
2023-03-20T08:41:27.514Z,18.42
2023-03-20T08:44:24.320Z,17.85
2023-03-20T08:47:21.145Z,28.40
2023-03-20T08:50:18.754Z,27.25
2023-03-20T08:53:15.744Z,23.17
2023-03-20T08:56:12.839Z,31.27
2023-03-20T08:59:09.654Z,19.95
2023-03-20T09:02:07.224Z,28.13
2023-03-20T09:05:04.487Z,26.63
2023-03-20T09:08:01.432Z,25.67
2023-03-20T09:10:58.247Z,24.67
2023-03-20T09:13:55.220Z,25.60
2023-03-20T09:16:52.206Z,25.92
2023-03-20T09:19:49.073Z,22.85
2023-03-20T09:22:46.201Z,21.88
2023-03-20T09:25:43.461Z,27.08
2023-03-20T09:28:40.274Z,25.85
2023-03-20T09:31:37.167Z,21.33
2023-03-20T09:34:34.008Z,37.90
2023-03-20T09:37:30.831Z,36.05
2023-03-20T09:40:38.143Z,40.70
2023-03-20T09:44:09.037Z,28.48
2023-03-20T09:47:28.326Z,24.10
2023-03-20T09:50:59.851Z,22.23
2023-03-20T09:54:18.962Z,48.05
2023-03-20T09:57:35.889Z,29.35
2023-03-20T10:00:36.004Z,38.97
2023-03-20T10:03:44.124Z,30.60
2023-03-20T10:06:41.258Z,41.53
2023-03-20T10:09:38.095Z,28.13
2023-03-20T10:13:00.264Z,31.52
2023-03-20T10:16:16.099Z,27.00
2023-03-20T10:19:34.001Z,27.27
2023-03-20T10:22:40.753Z,29.15
2023-03-20T10:25:55.207Z,26.42
2023-03-20T10:29:02.134Z,24.17
2023-03-20T10:32:38.603Z,25.35
2023-03-20T10:35:52.982Z,28.02
2023-03-20T10:39:05.155Z,27.27
2023-03-20T10:42:10.372Z,25.50
2023-03-20T10:45:18.304Z,20.38
2023-03-20T10:48:29.463Z,21.67
2023-03-20T10:51:51.671Z,21.13
2023-03-20T10:55:00.316Z,22.10
2023-03-20T10:58:22.845Z,17.58
2023-03-20T11:01:20.956Z,21.75
2023-03-20T11:04:17.895Z,20.88
2023-03-20T11:07:38.013Z,17.55
2023-03-20T11:10:38.689Z,17.77
2023-03-20T11:16:40.741Z,19.08
2023-03-20T11:19:41.626Z,23.05
2023-03-20T11:25:46.761Z,23.23
2023-03-20T11:28:57.872Z,17.90
2023-03-20T11:31:54.946Z,21.13
2023-03-20T11:34:52.225Z,21.25
2023-03-20T11:37:52.705Z,18.70
2023-03-20T11:40:52.517Z,19.40
2023-03-20T11:43:49.415Z,17.67
2023-03-20T11:46:56.730Z,18.85
2023-03-20T11:49:59.679Z,20.48
2023-03-20T11:52:56.847Z,20.85
2023-03-20T11:56:07.652Z,22.17
2023-03-20T11:59:18.392Z,19.95
2023-03-20T12:05:37.107Z,19.77
2023-03-20T12:08:39.279Z,20.80
2023-03-20T12:12:00.178Z,23.65
2023-03-20T12:18:40.936Z,19.38
2023-03-20T12:22:03.188Z,27.15
2023-03-20T12:25:24.210Z,19.77
2023-03-20T12:28:58.772Z,17.88
2023-03-20T12:32:34.278Z,18.88
2023-03-20T12:35:36.227Z,17.42
2023-03-20T12:38:34.656Z,16.65
2023-03-20T12:41:41.934Z,16.60
2023-03-20T12:45:13.880Z,17.10
2023-03-20T12:48:24.578Z,18.55
2023-03-20T12:51:35.747Z,15.23
2023-03-20T12:54:37.841Z,16.95
2023-03-20T12:58:03.367Z,13.32
2023-03-20T13:01:17.410Z,14.73
2023-03-20T13:04:21.820Z,15.10
2023-03-20T13:07:22.282Z,16.90
2023-03-20T13:10:23.601Z,14.90
2023-03-20T13:13:53.047Z,18.40
2023-03-20T13:17:15.750Z,13.50
2023-03-20T13:20:44.367Z,17.20
2023-03-20T13:23:59.516Z,17.55
2023-03-20T13:27:45.557Z,19.90
2023-03-20T13:31:19.775Z,17.90
2023-03-20T13:34:37.111Z,20.80
2023-03-20T13:37:40.686Z,17.80
2023-03-20T13:40:44.233Z,15.88
2023-03-20T13:43:54.641Z,13.55
2023-03-20T13:47:03.976Z,15.63
2023-03-20T13:50:38.492Z,15.02
2023-03-20T13:54:05.130Z,13.45
2023-03-20T13:57:44.605Z,15.02
2023-03-20T14:00:59.950Z,12.43
2023-03-20T14:03:57.795Z,11.70
2023-03-20T14:06:59.383Z,11.85
2023-03-20T14:09:57.314Z,11.60
2023-03-20T14:12:57.474Z,10.23
2023-03-20T14:16:01.333Z,7.57
2023-03-20T14:19:25.025Z,11.82
2023-03-20T14:22:28.987Z,14.98
2023-03-20T14:25:29.018Z,12.73
2023-03-20T14:28:34.088Z,11.75
2023-03-20T14:31:38.289Z,14.20
2023-03-20T14:34:48.136Z,12.90
2023-03-20T14:38:25.552Z,11.45
2023-03-20T14:41:52.343Z,13.10
2023-03-20T14:45:41.314Z,8.18
2023-03-20T14:48:46.729Z,11.13
2023-03-20T14:51:48.313Z,10.55
2023-03-20T14:54:55.735Z,8.00
2023-03-20T14:57:56.892Z,8.40
2023-03-20T15:00:54.285Z,8.80
2023-03-20T15:03:58.986Z,7.10
2023-03-20T15:07:17.914Z,7.35
2023-03-20T15:10:16.036Z,7.63
2023-03-20T15:13:15.954Z,9.63
2023-03-20T15:16:16.695Z,6.63
2023-03-20T15:19:20.264Z,8.57
2023-03-20T15:22:20.469Z,7.13
2023-03-20T15:25:19.739Z,6.65
2023-03-20T15:28:27.491Z,5.63
2023-03-20T15:31:39.127Z,6.30
2023-03-20T15:34:36.116Z,6.28
2023-03-20T15:37:34.822Z,5.53
2023-03-20T15:40:49.247Z,7.00
2023-03-20T15:43:50.277Z,6.00
2023-03-20T15:47:20.597Z,6.15
2023-03-20T15:50:17.700Z,6.47
2023-03-20T15:53:30.598Z,7.60
2023-03-20T15:56:28.155Z,9.10
2023-03-20T15:59:29.187Z,6.65
2023-03-20T16:02:27.932Z,6.70
2023-03-20T16:05:29.456Z,5.63
2023-03-20T16:08:33.516Z,5.93
2023-03-20T16:11:44.543Z,7.35
2023-03-20T16:14:41.660Z,6.82
2023-03-20T16:17:38.876Z,8.20
2023-03-20T16:20:42.279Z,8.05
2023-03-20T16:23:44.682Z,4.72
2023-03-20T16:26:47.904Z,6.22
2023-03-20T16:29:44.933Z,5.82
2023-03-20T16:32:47.089Z,6.38
2023-03-20T16:35:48.504Z,4.70
2023-03-20T16:39:19.109Z,4.93
2023-03-20T16:42:28.460Z,5.97
2023-03-20T16:45:31.547Z,5.50
2023-03-20T16:48:42.420Z,7.18
2023-03-20T16:54:37.016Z,8.52
2023-03-20T16:57:37.179Z,5.55
2023-03-20T17:00:58.671Z,7.45
2023-03-20T17:04:33.791Z,8.05
2023-03-20T17:07:31.886Z,7.05
2023-03-20T17:10:29.400Z,6.25
2023-03-20T17:13:26.625Z,7.20
2023-03-20T17:16:25.372Z,9.93
2023-03-20T17:19:22.476Z,10.23
2023-03-20T17:22:25.263Z,7.65
2023-03-20T17:25:22.477Z,8.23
2023-03-20T17:28:24.437Z,8.68
2023-03-20T17:31:21.450Z,6.80
2023-03-20T17:34:18.470Z,8.65
2023-03-20T17:37:23.092Z,8.13
2023-03-20T17:40:22.682Z,6.53
2023-03-20T17:43:20.221Z,8.70
2023-03-20T17:46:24.026Z,6.68
2023-03-20T17:49:26.807Z,6.63
2023-03-20T17:52:28.880Z,7.32
2023-03-20T17:55:25.739Z,6.15
2023-03-20T17:58:23.784Z,6.85
2023-03-20T18:01:20.702Z,7.07
2023-03-20T18:04:19.650Z,8.00
2023-03-20T18:07:18.129Z,7.90
2023-03-20T18:10:31.834Z,7.68
2023-03-20T18:13:29.516Z,7.80
2023-03-20T18:16:27.525Z,8.60
2023-03-20T18:19:29.167Z,6.40
2023-03-20T18:22:26.140Z,6.88
2023-03-20T18:25:25.940Z,7.53
2023-03-20T18:28:23.360Z,7.95
2023-03-20T18:31:21.454Z,5.25
2023-03-20T18:34:18.826Z,7.93
2023-03-20T18:37:15.818Z,8.07
2023-03-20T18:40:26.903Z,10.90
2023-03-20T18:43:23.776Z,10.40
2023-03-20T18:46:23.065Z,14.38
2023-03-20T18:49:21.132Z,12.30
2023-03-20T18:52:18.337Z,12.10
2023-03-20T18:55:15.253Z,8.95
2023-03-20T18:58:28.841Z,11.60
2023-03-20T19:01:27.196Z,8.63
2023-03-20T19:04:24.099Z,11.45
2023-03-20T19:07:21.047Z,8.75
2023-03-20T19:10:33.884Z,10.63
2023-03-20T19:13:30.982Z,12.20
2023-03-20T19:16:35.252Z,13.38
2023-03-20T19:19:32.140Z,8.43
2023-03-20T19:22:29.932Z,6.32
2023-03-20T19:25:27.124Z,6.28
2023-03-20T19:28:40.568Z,8.57
2023-03-20T19:31:37.966Z,7.82
2023-03-20T19:37:53.348Z,6.70
2023-03-20T19:40:53.044Z,7.68
2023-03-20T19:43:53.501Z,8.30
2023-03-20T19:46:52.721Z,7.03
2023-03-20T19:49:49.664Z,6.72
2023-03-20T19:52:46.551Z,7.68
2023-03-20T19:55:44.026Z,7.05
2023-03-20T19:58:41.327Z,5.63
2023-03-20T20:01:38.218Z,7.38
2023-03-20T20:04:35.554Z,6.65
2023-03-20T20:10:52.247Z,5.35
2023-03-20T20:14:07.648Z,5.23
2023-03-20T20:17:05.877Z,6.35
2023-03-20T20:20:06.305Z,5.53
2023-03-20T20:26:07.884Z,7.03
2023-03-20T20:29:04.778Z,6.13
2023-03-20T20:32:01.841Z,4.28
2023-03-20T20:38:49.454Z,4.55
2023-03-20T20:41:33.104Z,5.97
2023-03-20T20:44:29.936Z,4.97
2023-03-20T20:47:26.822Z,8.45
2023-03-20T20:50:29.930Z,20.52
2023-03-20T20:53:26.838Z,12.80
2023-03-20T20:56:23.702Z,5.85
2023-03-20T20:59:20.660Z,6.55
2023-03-20T21:02:17.626Z,5.07
2023-03-20T21:05:16.763Z,3.85
2023-03-20T21:08:14.458Z,4.40
2023-03-20T21:11:15.021Z,3.88
2023-03-20T21:14:12.050Z,4.35
2023-03-20T21:17:10.391Z,3.70
2023-03-20T21:20:07.924Z,4.80
2023-03-20T21:23:04.901Z,3.22
2023-03-20T21:26:01.792Z,5.80
2023-03-20T21:28:58.644Z,5.35
2023-03-20T21:31:55.539Z,5.25
2023-03-20T21:34:53.199Z,6.38
2023-03-20T21:38:45.312Z,4.25
2023-03-20T21:41:09.256Z,6.85
2023-03-20T21:44:07.619Z,5.13
2023-03-20T21:47:55.673Z,5.78
2023-03-20T21:50:58.092Z,4.82
2023-03-20T21:57:55.115Z,7.60
2023-03-20T22:01:07.959Z,6.38
2023-03-20T22:04:06.380Z,8.52
2023-03-20T22:07:26.746Z,5.97
2023-03-20T22:10:53.375Z,5.07
2023-03-20T22:23:56.358Z,4.93
2023-03-20T22:34:09.193Z,4.88
2023-03-20T22:43:44.652Z,4.40
2023-03-20T22:46:39.943Z,4.57
2023-03-20T22:49:30.510Z,4.82
2023-03-20T22:52:41.700Z,3.72
2023-03-20T22:55:46.858Z,3.58
2023-03-20T22:58:43.721Z,5.53
2023-03-20T23:01:40.857Z,4.70
2023-03-20T23:04:37.898Z,5.10
2023-03-20T23:07:35.117Z,4.25
2023-03-20T23:10:32.889Z,4.85
2023-03-20T23:13:29.729Z,6.55
2023-03-20T23:16:26.679Z,3.35
2023-03-20T23:19:23.584Z,4.75
2023-03-20T23:22:20.477Z,4.47
2023-03-20T23:25:27.425Z,5.63
2023-03-20T23:28:37.388Z,8.52
2023-03-20T23:31:34.292Z,5.50
2023-03-20T23:34:31.158Z,4.75
2023-03-20T23:37:28.072Z,4.95
2023-03-20T23:40:25.519Z,4.65
2023-03-20T23:43:22.859Z,5.13
2023-03-20T23:46:19.771Z,4.70
2023-03-20T23:49:17.511Z,5.93
2023-03-20T23:52:14.502Z,4.68
2023-03-20T23:55:11.373Z,8.63
2023-03-20T23:58:08.252Z,3.95
